sensor_id;sensor_type;location;lat;lon;timestamp;P1;durP1;ratioP1;P2;durP2;ratioP2
74872;SDS011;68776;44.762;37.698;2023-05-10T00:00:11;0.70;;;0.20;;
74872;SDS011;68776;44.762;37.698;2023-05-10T00:01:16;0.50;;;0.20;;
74872;SDS011;68776;44.762;37.698;2023-05-10T00:02:17;1.30;;;0.30;;
74872;SDS011;68776;44.762;37.698;2023-05-10T00:03:18;0.55;;;0.10;;
74872;SDS011;68776;44.762;37.698;2023-05-10T00:04:19;0.40;;;0.10;;
74872;SDS011;68776;44.762;37.698;2023-05-10T00:05:21;0.55;;;0.10;;
74872;SDS011;68776;44.762;37.698;2023-05-10T00:06:21;0.30;;;0.10;;
74872;SDS011;68776;44.762;37.698;2023-05-10T00:07:22;0.43;;;0.10;;
74872;SDS011;68776;44.762;37.698;2023-05-10T00:08:23;0.40;;;0.10;;
74872;SDS011;68776;44.762;37.698;2023-05-10T00:09:25;0.75;;;0.20;;
74872;SDS011;68776;44.762;37.698;2023-05-10T00:10:25;0.75;;;0.20;;
74872;SDS011;68776;44.762;37.698;2023-05-10T00:11:26;0.43;;;0.10;;
74872;SDS011;68776;44.762;37.698;2023-05-10T00:12:27;0.32;;;0.10;;
74872;SDS011;68776;44.762;37.698;2023-05-10T00:13:28;0.65;;;0.20;;
74872;SDS011;68776;44.762;37.698;2023-05-10T00:14:29;0.90;;;0.30;;
74872;SDS011;68776;44.762;37.698;2023-05-10T00:15:30;0.60;;;0.13;;
74872;SDS011;68776;44.762;37.698;2023-05-10T00:16:31;0.50;;;0.10;;
74872;SDS011;68776;44.762;37.698;2023-05-10T00:17:32;0.75;;;0.20;;
74872;SDS011;68776;44.762;37.698;2023-05-10T00:18:33;0.43;;;0.10;;
74872;SDS011;68776;44.762;37.698;2023-05-10T00:19:34;0.67;;;0.17;;
74872;SDS011;68776;44.762;37.698;2023-05-10T00:20:35;0.47;;;0.10;;
74872;SDS011;68776;44.762;37.698;2023-05-10T00:21:36;0.60;;;0.10;;
74872;SDS011;68776;44.762;37.698;2023-05-10T00:22:37;1.15;;;0.45;;
74872;SDS011;68776;44.762;37.698;2023-05-10T00:23:38;0.80;;;0.17;;
74872;SDS011;68776;44.762;37.698;2023-05-10T00:24:39;0.47;;;0.17;;
74872;SDS011;68776;44.762;37.698;2023-05-10T00:25:40;0.65;;;0.20;;
74872;SDS011;68776;44.762;37.698;2023-05-10T00:26:41;0.50;;;0.10;;
74872;SDS011;68776;44.762;37.698;2023-05-10T00:27:43;0.80;;;0.10;;
74872;SDS011;68776;44.762;37.698;2023-05-10T00:28:45;0.38;;;0.10;;
74872;SDS011;68776;44.762;37.698;2023-05-10T00:29:46;0.80;;;0.20;;
74872;SDS011;68776;44.762;37.698;2023-05-10T00:30:47;0.60;;;0.10;;
74872;SDS011;68776;44.762;37.698;2023-05-10T00:31:48;0.30;;;0.10;;
74872;SDS011;68776;44.762;37.698;2023-05-10T00:32:49;0.60;;;0.20;;
74872;SDS011;68776;44.762;37.698;2023-05-10T00:33:50;0.50;;;0.20;;
74872;SDS011;68776;44.762;37.698;2023-05-10T00:34:51;0.60;;;0.20;;
74872;SDS011;68776;44.762;37.698;2023-05-10T00:35:52;0.70;;;0.20;;
74872;SDS011;68776;44.762;37.698;2023-05-10T00:36:53;0.50;;;0.15;;
74872;SDS011;68776;44.762;37.698;2023-05-10T00:37:54;0.77;;;0.20;;
74872;SDS011;68776;44.762;37.698;2023-05-10T00:38:55;0.30;;;0.10;;
74872;SDS011;68776;44.762;37.698;2023-05-10T00:39:57;0.90;;;0.10;;
74872;SDS011;68776;44.762;37.698;2023-05-10T00:40:58;0.50;;;0.10;;
74872;SDS011;68776;44.762;37.698;2023-05-10T00:42:03;0.73;;;0.20;;
74872;SDS011;68776;44.762;37.698;2023-05-10T00:43:05;0.75;;;0.20;;
74872;SDS011;68776;44.762;37.698;2023-05-10T00:44:06;0.53;;;0.10;;
74872;SDS011;68776;44.762;37.698;2023-05-10T00:45:07;0.40;;;0.10;;
74872;SDS011;68776;44.762;37.698;2023-05-10T00:46:09;0.60;;;0.20;;
74872;SDS011;68776;44.762;37.698;2023-05-10T00:47:12;1.40;;;0.20;;
74872;SDS011;68776;44.762;37.698;2023-05-10T00:48:13;0.55;;;0.10;;
74872;SDS011;68776;44.762;37.698;2023-05-10T00:49:14;0.80;;;0.20;;
74872;SDS011;68776;44.762;37.698;2023-05-10T00:50:15;3.10;;;0.30;;
74872;SDS011;68776;44.762;37.698;2023-05-10T00:51:16;0.40;;;0.10;;
74872;SDS011;68776;44.762;37.698;2023-05-10T00:52:18;0.70;;;0.20;;
74872;SDS011;68776;44.762;37.698;2023-05-10T00:53:19;0.90;;;0.30;;
74872;SDS011;68776;44.762;37.698;2023-05-10T00:54:21;0.30;;;0.10;;
74872;SDS011;68776;44.762;37.698;2023-05-10T00:55:22;0.50;;;0.20;;
74872;SDS011;68776;44.762;37.698;2023-05-10T00:56:24;0.70;;;0.20;;
74872;SDS011;68776;44.762;37.698;2023-05-10T00:57:26;0.47;;;0.10;;
74872;SDS011;68776;44.762;37.698;2023-05-10T00:58:27;0.70;;;0.20;;
74872;SDS011;68776;44.762;37.698;2023-05-10T00:59:29;0.40;;;0.10;;
74872;SDS011;68776;44.762;37.698;2023-05-10T01:00:30;0.30;;;0.10;;
74872;SDS011;68776;44.762;37.698;2023-05-10T01:01:32;0.40;;;0.10;;
74872;SDS011;68776;44.762;37.698;2023-05-10T01:02:34;0.80;;;0.20;;
74872;SDS011;68776;44.762;37.698;2023-05-10T01:03:35;0.40;;;0.10;;
74872;SDS011;68776;44.762;37.698;2023-05-10T01:04:36;10.05;;;0.30;;
74872;SDS011;68776;44.762;37.698;2023-05-10T01:05:38;0.80;;;0.20;;
74872;SDS011;68776;44.762;37.698;2023-05-10T01:06:41;0.40;;;0.10;;
74872;SDS011;68776;44.762;37.698;2023-05-10T01:07:43;0.60;;;0.20;;
74872;SDS011;68776;44.762;37.698;2023-05-10T01:08:44;0.30;;;0.10;;
74872;SDS011;68776;44.762;37.698;2023-05-10T01:09:45;0.90;;;0.20;;
74872;SDS011;68776;44.762;37.698;2023-05-10T01:10:47;0.60;;;0.17;;
74872;SDS011;68776;44.762;37.698;2023-05-10T01:11:49;0.40;;;0.10;;
74872;SDS011;68776;44.762;37.698;2023-05-10T01:12:50;0.43;;;0.10;;
74872;SDS011;68776;44.762;37.698;2023-05-10T01:13:53;0.50;;;0.10;;
74872;SDS011;68776;44.762;37.698;2023-05-10T01:14:57;1.80;;;0.20;;
74872;SDS011;68776;44.762;37.698;2023-05-10T01:15:58;0.80;;;0.25;;
74872;SDS011;68776;44.762;37.698;2023-05-10T01:17:02;0.43;;;0.10;;
74872;SDS011;68776;44.762;37.698;2023-05-10T01:18:04;0.50;;;0.10;;
74872;SDS011;68776;44.762;37.698;2023-05-10T01:19:06;0.60;;;0.20;;
74872;SDS011;68776;44.762;37.698;2023-05-10T01:20:23;0.88;;;0.25;;
74872;SDS011;68776;44.762;37.698;2023-05-10T01:21:43;0.60;;;0.20;;
74872;SDS011;68776;44.762;37.698;2023-05-10T01:29:45;0.80;;;0.20;;
74872;SDS011;68776;44.762;37.698;2023-05-10T01:31:08;1.10;;;0.30;;
74872;SDS011;68776;44.762;37.698;2023-05-10T01:32:21;1.05;;;0.30;;
74872;SDS011;68776;44.762;37.698;2023-05-10T01:34:57;0.85;;;0.30;;
74872;SDS011;68776;44.762;37.698;2023-05-10T01:37:50;1.30;;;0.45;;
74872;SDS011;68776;44.762;37.698;2023-05-10T01:38:59;2.25;;;0.73;;
74872;SDS011;68776;44.762;37.698;2023-05-10T01:40:20;1.42;;;0.40;;
74872;SDS011;68776;44.762;37.698;2023-05-10T01:42:46;0.90;;;0.20;;
74872;SDS011;68776;44.762;37.698;2023-05-10T01:45:41;1.55;;;0.57;;
74872;SDS011;68776;44.762;37.698;2023-05-10T01:46:58;1.40;;;0.40;;
74872;SDS011;68776;44.762;37.698;2023-05-10T01:48:09;3.15;;;0.50;;
74872;SDS011;68776;44.762;37.698;2023-05-10T01:49:13;1.65;;;0.40;;
74872;SDS011;68776;44.762;37.698;2023-05-10T01:50:27;2.35;;;0.85;;
74872;SDS011;68776;44.762;37.698;2023-05-10T01:51:33;1.08;;;0.22;;
74872;SDS011;68776;44.762;37.698;2023-05-10T01:52:42;1.38;;;0.32;;
74872;SDS011;68776;44.762;37.698;2023-05-10T01:53:48;1.00;;;0.30;;
74872;SDS011;68776;44.762;37.698;2023-05-10T01:55:13;1.25;;;0.30;;
74872;SDS011;68776;44.762;37.698;2023-05-10T01:56:16;1.00;;;0.50;;
74872;SDS011;68776;44.762;37.698;2023-05-10T01:57:25;1.30;;;0.40;;
74872;SDS011;68776;44.762;37.698;2023-05-10T01:58:31;1.63;;;0.55;;
74872;SDS011;68776;44.762;37.698;2023-05-10T01:59:35;1.25;;;0.45;;
74872;SDS011;68776;44.762;37.698;2023-05-10T02:00:44;2.22;;;0.40;;
74872;SDS011;68776;44.762;37.698;2023-05-10T02:01:46;1.17;;;0.30;;
74872;SDS011;68776;44.762;37.698;2023-05-10T02:02:49;0.45;;;0.10;;
74872;SDS011;68776;44.762;37.698;2023-05-10T02:03:51;0.70;;;0.20;;
74872;SDS011;68776;44.762;37.698;2023-05-10T02:04:53;1.80;;;0.40;;
74872;SDS011;68776;44.762;37.698;2023-05-10T02:05:56;1.30;;;0.40;;
74872;SDS011;68776;44.762;37.698;2023-05-10T02:06:59;1.13;;;0.30;;
74872;SDS011;68776;44.762;37.698;2023-05-10T02:08:01;0.52;;;0.10;;
74872;SDS011;68776;44.762;37.698;2023-05-10T02:09:06;1.42;;;0.30;;
74872;SDS011;68776;44.762;37.698;2023-05-10T02:10:09;1.00;;;0.30;;
74872;SDS011;68776;44.762;37.698;2023-05-10T02:11:12;1.00;;;0.30;;
74872;SDS011;68776;44.762;37.698;2023-05-10T02:12:14;1.20;;;0.40;;
74872;SDS011;68776;44.762;37.698;2023-05-10T02:13:16;1.20;;;0.27;;
74872;SDS011;68776;44.762;37.698;2023-05-10T02:14:19;1.60;;;0.40;;
74872;SDS011;68776;44.762;37.698;2023-05-10T02:15:22;1.55;;;0.38;;
74872;SDS011;68776;44.762;37.698;2023-05-10T02:16:26;0.70;;;0.20;;
74872;SDS011;68776;44.762;37.698;2023-05-10T02:17:28;1.90;;;0.40;;
74872;SDS011;68776;44.762;37.698;2023-05-10T02:18:31;1.00;;;0.20;;
74872;SDS011;68776;44.762;37.698;2023-05-10T02:19:36;1.30;;;0.40;;
74872;SDS011;68776;44.762;37.698;2023-05-10T02:20:41;0.80;;;0.20;;
74872;SDS011;68776;44.762;37.698;2023-05-10T02:21:43;0.90;;;0.20;;
74872;SDS011;68776;44.762;37.698;2023-05-10T02:22:46;0.60;;;0.20;;
74872;SDS011;68776;44.762;37.698;2023-05-10T02:23:49;0.60;;;0.20;;
74872;SDS011;68776;44.762;37.698;2023-05-10T02:24:52;1.53;;;0.40;;
74872;SDS011;68776;44.762;37.698;2023-05-10T02:25:56;0.90;;;0.20;;
74872;SDS011;68776;44.762;37.698;2023-05-10T02:26:59;0.90;;;0.30;;
74872;SDS011;68776;44.762;37.698;2023-05-10T02:28:01;2.85;;;0.30;;
74872;SDS011;68776;44.762;37.698;2023-05-10T02:29:05;2.10;;;0.40;;
74872;SDS011;68776;44.762;37.698;2023-05-10T02:30:07;1.65;;;0.47;;
74872;SDS011;68776;44.762;37.698;2023-05-10T02:31:10;1.38;;;0.40;;
74872;SDS011;68776;44.762;37.698;2023-05-10T02:32:12;1.27;;;0.50;;
74872;SDS011;68776;44.762;37.698;2023-05-10T02:33:14;2.05;;;0.60;;
74872;SDS011;68776;44.762;37.698;2023-05-10T02:34:16;1.00;;;0.25;;
74872;SDS011;68776;44.762;37.698;2023-05-10T02:35:19;1.47;;;0.37;;
74872;SDS011;68776;44.762;37.698;2023-05-10T02:36:21;1.65;;;0.60;;
74872;SDS011;68776;44.762;37.698;2023-05-10T02:37:23;1.50;;;0.50;;
74872;SDS011;68776;44.762;37.698;2023-05-10T02:38:25;1.55;;;0.38;;
74872;SDS011;68776;44.762;37.698;2023-05-10T02:39:27;1.40;;;0.40;;
74872;SDS011;68776;44.762;37.698;2023-05-10T02:40:31;1.05;;;0.30;;
74872;SDS011;68776;44.762;37.698;2023-05-10T02:41:34;1.70;;;0.40;;
74872;SDS011;68776;44.762;37.698;2023-05-10T02:42:36;1.47;;;0.47;;
74872;SDS011;68776;44.762;37.698;2023-05-10T02:43:39;2.10;;;0.47;;
74872;SDS011;68776;44.762;37.698;2023-05-10T02:44:41;2.15;;;0.65;;
74872;SDS011;68776;44.762;37.698;2023-05-10T02:45:43;1.48;;;0.43;;
74872;SDS011;68776;44.762;37.698;2023-05-10T02:46:48;0.80;;;0.20;;
74872;SDS011;68776;44.762;37.698;2023-05-10T02:47:49;2.00;;;0.60;;
74872;SDS011;68776;44.762;37.698;2023-05-10T02:48:50;2.30;;;0.65;;
74872;SDS011;68776;44.762;37.698;2023-05-10T02:49:51;2.03;;;0.60;;
74872;SDS011;68776;44.762;37.698;2023-05-10T02:50:52;2.80;;;0.77;;
74872;SDS011;68776;44.762;37.698;2023-05-10T02:51:57;1.05;;;0.40;;
74872;SDS011;68776;44.762;37.698;2023-05-10T02:53:05;1.10;;;0.30;;
74872;SDS011;68776;44.762;37.698;2023-05-10T02:54:11;1.25;;;0.35;;
74872;SDS011;68776;44.762;37.698;2023-05-10T02:55:16;1.20;;;0.40;;
74872;SDS011;68776;44.762;37.698;2023-05-10T02:56:25;1.98;;;0.60;;
74872;SDS011;68776;44.762;37.698;2023-05-10T02:57:36;1.20;;;0.38;;
74872;SDS011;68776;44.762;37.698;2023-05-10T02:58:41;1.25;;;0.40;;
74872;SDS011;68776;44.762;37.698;2023-05-10T02:59:42;1.50;;;0.40;;
74872;SDS011;68776;44.762;37.698;2023-05-10T03:00:45;1.33;;;0.57;;
74872;SDS011;68776;44.762;37.698;2023-05-10T03:01:46;2.28;;;0.50;;
74872;SDS011;68776;44.762;37.698;2023-05-10T03:02:47;1.02;;;0.30;;
74872;SDS011;68776;44.762;37.698;2023-05-10T03:03:48;2.42;;;0.57;;
74872;SDS011;68776;44.762;37.698;2023-05-10T03:04:49;1.60;;;0.43;;
74872;SDS011;68776;44.762;37.698;2023-05-10T03:05:51;1.55;;;0.40;;
74872;SDS011;68776;44.762;37.698;2023-05-10T03:06:56;1.50;;;0.45;;
74872;SDS011;68776;44.762;37.698;2023-05-10T03:07:57;1.93;;;0.40;;
74872;SDS011;68776;44.762;37.698;2023-05-10T03:08:58;1.48;;;0.40;;
74872;SDS011;68776;44.762;37.698;2023-05-10T03:09:59;1.98;;;0.50;;
74872;SDS011;68776;44.762;37.698;2023-05-10T03:11:47;1.55;;;0.43;;
74872;SDS011;68776;44.762;37.698;2023-05-10T03:12:56;1.33;;;0.40;;
74872;SDS011;68776;44.762;37.698;2023-05-10T03:15:37;1.38;;;0.40;;
74872;SDS011;68776;44.762;37.698;2023-05-10T03:16:47;1.23;;;0.30;;
74872;SDS011;68776;44.762;37.698;2023-05-10T03:18:18;1.45;;;0.40;;
74872;SDS011;68776;44.762;37.698;2023-05-10T03:19:43;2.25;;;0.40;;
74872;SDS011;68776;44.762;37.698;2023-05-10T03:21:07;1.90;;;0.47;;
74872;SDS011;68776;44.762;37.698;2023-05-10T03:22:16;1.50;;;0.50;;
74872;SDS011;68776;44.762;37.698;2023-05-10T03:23:33;2.70;;;0.77;;
74872;SDS011;68776;44.762;37.698;2023-05-10T03:24:47;0.95;;;0.30;;
74872;SDS011;68776;44.762;37.698;2023-05-10T03:25:50;1.60;;;0.40;;
74872;SDS011;68776;44.762;37.698;2023-05-10T03:26:52;1.30;;;0.40;;
74872;SDS011;68776;44.762;37.698;2023-05-10T03:27:57;1.85;;;0.32;;
74872;SDS011;68776;44.762;37.698;2023-05-10T03:29:00;1.25;;;0.40;;
74872;SDS011;68776;44.762;37.698;2023-05-10T03:30:02;1.73;;;0.40;;
74872;SDS011;68776;44.762;37.698;2023-05-10T03:31:07;1.45;;;0.50;;
74872;SDS011;68776;44.762;37.698;2023-05-10T03:32:08;1.60;;;0.40;;
74872;SDS011;68776;44.762;37.698;2023-05-10T03:33:09;1.40;;;0.25;;
74872;SDS011;68776;44.762;37.698;2023-05-10T03:34:14;1.13;;;0.25;;
74872;SDS011;68776;44.762;37.698;2023-05-10T03:35:15;1.20;;;0.30;;
74872;SDS011;68776;44.762;37.698;2023-05-10T03:36:17;1.20;;;0.38;;
74872;SDS011;68776;44.762;37.698;2023-05-10T03:37:18;1.00;;;0.20;;
74872;SDS011;68776;44.762;37.698;2023-05-10T03:38:19;1.30;;;0.37;;
74872;SDS011;68776;44.762;37.698;2023-05-10T03:39:20;1.00;;;0.35;;
74872;SDS011;68776;44.762;37.698;2023-05-10T03:40:26;1.75;;;0.32;;
74872;SDS011;68776;44.762;37.698;2023-05-10T03:41:33;1.23;;;0.30;;
74872;SDS011;68776;44.762;37.698;2023-05-10T03:42:34;1.88;;;0.30;;
74872;SDS011;68776;44.762;37.698;2023-05-10T03:43:35;1.00;;;0.30;;
74872;SDS011;68776;44.762;37.698;2023-05-10T03:44:37;0.77;;;0.20;;
74872;SDS011;68776;44.762;37.698;2023-05-10T03:45:39;1.55;;;0.45;;
74872;SDS011;68776;44.762;37.698;2023-05-10T03:46:40;1.05;;;0.30;;
74872;SDS011;68776;44.762;37.698;2023-05-10T03:47:41;2.00;;;0.40;;
74872;SDS011;68776;44.762;37.698;2023-05-10T03:48:42;1.00;;;0.30;;
74872;SDS011;68776;44.762;37.698;2023-05-10T03:49:43;1.80;;;0.50;;
74872;SDS011;68776;44.762;37.698;2023-05-10T03:50:45;2.50;;;0.80;;
74872;SDS011;68776;44.762;37.698;2023-05-10T03:51:47;2.60;;;0.60;;
74872;SDS011;68776;44.762;37.698;2023-05-10T03:52:48;2.42;;;0.60;;
74872;SDS011;68776;44.762;37.698;2023-05-10T03:53:49;1.73;;;0.50;;
74872;SDS011;68776;44.762;37.698;2023-05-10T03:54:50;2.45;;;0.70;;
74872;SDS011;68776;44.762;37.698;2023-05-10T03:55:51;1.80;;;0.30;;
74872;SDS011;68776;44.762;37.698;2023-05-10T03:56:52;2.00;;;0.40;;
74872;SDS011;68776;44.762;37.698;2023-05-10T03:57:54;2.03;;;0.68;;
74872;SDS011;68776;44.762;37.698;2023-05-10T03:58:56;2.70;;;0.80;;
74872;SDS011;68776;44.762;37.698;2023-05-10T03:59:57;1.80;;;0.40;;
74872;SDS011;68776;44.762;37.698;2023-05-10T04:00:58;1.33;;;0.43;;
74872;SDS011;68776;44.762;37.698;2023-05-10T04:02:00;1.80;;;0.30;;
74872;SDS011;68776;44.762;37.698;2023-05-10T04:03:00;1.53;;;0.47;;
74872;SDS011;68776;44.762;37.698;2023-05-10T04:04:02;1.02;;;0.32;;
74872;SDS011;68776;44.762;37.698;2023-05-10T04:05:05;1.90;;;0.45;;
74872;SDS011;68776;44.762;37.698;2023-05-10T04:06:06;1.45;;;0.45;;
74872;SDS011;68776;44.762;37.698;2023-05-10T04:07:09;1.95;;;0.52;;
74872;SDS011;68776;44.762;37.698;2023-05-10T04:08:10;1.45;;;0.30;;
74872;SDS011;68776;44.762;37.698;2023-05-10T04:09:11;2.17;;;0.70;;
74872;SDS011;68776;44.762;37.698;2023-05-10T04:10:13;2.28;;;0.70;;
74872;SDS011;68776;44.762;37.698;2023-05-10T04:11:14;0.97;;;0.30;;
74872;SDS011;68776;44.762;37.698;2023-05-10T04:12:15;1.10;;;0.30;;
74872;SDS011;68776;44.762;37.698;2023-05-10T04:13:16;2.10;;;0.50;;
74872;SDS011;68776;44.762;37.698;2023-05-10T04:14:17;1.98;;;0.60;;
74872;SDS011;68776;44.762;37.698;2023-05-10T04:15:18;2.28;;;0.50;;
74872;SDS011;68776;44.762;37.698;2023-05-10T04:16:19;1.27;;;0.30;;
74872;SDS011;68776;44.762;37.698;2023-05-10T04:17:20;1.30;;;0.30;;
74872;SDS011;68776;44.762;37.698;2023-05-10T04:18:21;3.15;;;0.55;;
74872;SDS011;68776;44.762;37.698;2023-05-10T04:19:22;2.10;;;0.40;;
74872;SDS011;68776;44.762;37.698;2023-05-10T04:20:23;1.73;;;0.40;;
74872;SDS011;68776;44.762;37.698;2023-05-10T04:21:25;1.65;;;0.40;;
74872;SDS011;68776;44.762;37.698;2023-05-10T04:22:26;1.67;;;0.50;;
74872;SDS011;68776;44.762;37.698;2023-05-10T04:23:28;1.58;;;0.50;;
74872;SDS011;68776;44.762;37.698;2023-05-10T04:24:29;2.13;;;0.50;;
74872;SDS011;68776;44.762;37.698;2023-05-10T04:25:30;2.33;;;0.70;;
74872;SDS011;68776;44.762;37.698;2023-05-10T04:26:34;1.40;;;0.38;;
74872;SDS011;68776;44.762;37.698;2023-05-10T04:27:35;1.70;;;0.50;;
74872;SDS011;68776;44.762;37.698;2023-05-10T04:28:36;2.37;;;0.60;;
74872;SDS011;68776;44.762;37.698;2023-05-10T04:29:37;4.38;;;0.80;;
74872;SDS011;68776;44.762;37.698;2023-05-10T04:30:39;2.80;;;0.57;;
74872;SDS011;68776;44.762;37.698;2023-05-10T04:31:40;1.43;;;0.30;;
74872;SDS011;68776;44.762;37.698;2023-05-10T04:32:41;3.47;;;0.60;;
74872;SDS011;68776;44.762;37.698;2023-05-10T04:33:42;2.03;;;0.40;;
74872;SDS011;68776;44.762;37.698;2023-05-10T04:34:43;2.75;;;0.55;;
74872;SDS011;68776;44.762;37.698;2023-05-10T04:35:44;3.90;;;0.38;;
74872;SDS011;68776;44.762;37.698;2023-05-10T04:36:45;2.57;;;0.50;;
74872;SDS011;68776;44.762;37.698;2023-05-10T04:37:46;1.42;;;0.40;;
74872;SDS011;68776;44.762;37.698;2023-05-10T04:38:47;1.42;;;0.50;;
74872;SDS011;68776;44.762;37.698;2023-05-10T04:39:48;0.90;;;0.30;;
74872;SDS011;68776;44.762;37.698;2023-05-10T04:40:49;5.90;;;0.70;;
74872;SDS011;68776;44.762;37.698;2023-05-10T04:41:51;2.40;;;0.60;;
74872;SDS011;68776;44.762;37.698;2023-05-10T04:42:51;2.65;;;0.35;;
74872;SDS011;68776;44.762;37.698;2023-05-10T04:43:52;2.00;;;0.40;;
74872;SDS011;68776;44.762;37.698;2023-05-10T04:44:53;1.13;;;0.40;;
74872;SDS011;68776;44.762;37.698;2023-05-10T04:45:56;2.25;;;0.55;;
74872;SDS011;68776;44.762;37.698;2023-05-10T04:46:57;1.88;;;0.50;;
74872;SDS011;68776;44.762;37.698;2023-05-10T04:47:58;2.88;;;0.70;;
74872;SDS011;68776;44.762;37.698;2023-05-10T04:48:59;3.10;;;0.70;;
74872;SDS011;68776;44.762;37.698;2023-05-10T04:50:00;1.80;;;0.43;;
74872;SDS011;68776;44.762;37.698;2023-05-10T04:51:01;1.85;;;0.55;;
74872;SDS011;68776;44.762;37.698;2023-05-10T04:52:04;1.42;;;0.40;;
74872;SDS011;68776;44.762;37.698;2023-05-10T04:53:05;2.92;;;0.50;;
74872;SDS011;68776;44.762;37.698;2023-05-10T04:54:06;2.70;;;0.60;;
74872;SDS011;68776;44.762;37.698;2023-05-10T04:55:07;3.00;;;0.60;;
74872;SDS011;68776;44.762;37.698;2023-05-10T04:56:09;1.38;;;0.47;;
74872;SDS011;68776;44.762;37.698;2023-05-10T04:57:10;3.85;;;0.50;;
74872;SDS011;68776;44.762;37.698;2023-05-10T04:58:11;1.15;;;0.20;;
74872;SDS011;68776;44.762;37.698;2023-05-10T04:59:12;2.17;;;0.50;;
74872;SDS011;68776;44.762;37.698;2023-05-10T05:00:14;2.35;;;0.50;;
74872;SDS011;68776;44.762;37.698;2023-05-10T05:01:15;2.17;;;0.60;;
74872;SDS011;68776;44.762;37.698;2023-05-10T05:02:16;1.70;;;0.50;;
74872;SDS011;68776;44.762;37.698;2023-05-10T05:03:17;1.98;;;0.55;;
74872;SDS011;68776;44.762;37.698;2023-05-10T05:04:18;1.77;;;0.32;;
74872;SDS011;68776;44.762;37.698;2023-05-10T05:05:19;2.08;;;0.50;;
74872;SDS011;68776;44.762;37.698;2023-05-10T05:06:20;2.47;;;0.60;;
74872;SDS011;68776;44.762;37.698;2023-05-10T05:07:25;1.90;;;0.50;;
74872;SDS011;68776;44.762;37.698;2023-05-10T05:08:26;3.30;;;0.77;;
74872;SDS011;68776;44.762;37.698;2023-05-10T05:09:27;5.00;;;0.55;;
74872;SDS011;68776;44.762;37.698;2023-05-10T05:10:28;1.60;;;0.30;;
74872;SDS011;68776;44.762;37.698;2023-05-10T05:11:29;2.22;;;0.50;;
74872;SDS011;68776;44.762;37.698;2023-05-10T05:12:30;2.55;;;0.60;;
74872;SDS011;68776;44.762;37.698;2023-05-10T05:13:31;2.50;;;0.63;;
74872;SDS011;68776;44.762;37.698;2023-05-10T05:14:32;1.90;;;0.40;;
74872;SDS011;68776;44.762;37.698;2023-05-10T05:15:33;2.15;;;0.55;;
74872;SDS011;68776;44.762;37.698;2023-05-10T05:16:34;0.77;;;0.20;;
74872;SDS011;68776;44.762;37.698;2023-05-10T05:17:35;1.25;;;0.30;;
74872;SDS011;68776;44.762;37.698;2023-05-10T05:18:36;1.38;;;0.30;;
74872;SDS011;68776;44.762;37.698;2023-05-10T05:19:37;1.48;;;0.25;;
74872;SDS011;68776;44.762;37.698;2023-05-10T05:20:38;1.20;;;0.30;;
74872;SDS011;68776;44.762;37.698;2023-05-10T05:21:39;1.48;;;0.50;;
74872;SDS011;68776;44.762;37.698;2023-05-10T05:22:40;2.72;;;0.77;;
74872;SDS011;68776;44.762;37.698;2023-05-10T05:23:41;3.30;;;1.02;;
74872;SDS011;68776;44.762;37.698;2023-05-10T05:24:42;3.08;;;1.02;;
74872;SDS011;68776;44.762;37.698;2023-05-10T05:25:43;4.55;;;1.65;;
74872;SDS011;68776;44.762;37.698;2023-05-10T05:26:44;9.93;;;2.60;;
74872;SDS011;68776;44.762;37.698;2023-05-10T05:27:45;3.17;;;0.98;;
74872;SDS011;68776;44.762;37.698;2023-05-10T05:28:46;3.70;;;1.43;;
74872;SDS011;68776;44.762;37.698;2023-05-10T05:29:48;2.73;;;0.80;;
74872;SDS011;68776;44.762;37.698;2023-05-10T05:30:50;2.83;;;0.82;;
74872;SDS011;68776;44.762;37.698;2023-05-10T05:31:51;2.05;;;0.52;;
74872;SDS011;68776;44.762;37.698;2023-05-10T05:32:52;2.42;;;0.68;;
74872;SDS011;68776;44.762;37.698;2023-05-10T05:33:53;2.00;;;0.50;;
74872;SDS011;68776;44.762;37.698;2023-05-10T05:34:54;1.73;;;0.50;;
74872;SDS011;68776;44.762;37.698;2023-05-10T05:35:55;1.25;;;0.40;;
74872;SDS011;68776;44.762;37.698;2023-05-10T05:36:56;1.60;;;0.30;;
74872;SDS011;68776;44.762;37.698;2023-05-10T05:37:57;2.23;;;0.40;;
74872;SDS011;68776;44.762;37.698;2023-05-10T05:38:58;1.67;;;0.40;;
74872;SDS011;68776;44.762;37.698;2023-05-10T05:39:59;6.17;;;0.60;;
74872;SDS011;68776;44.762;37.698;2023-05-10T05:41:02;1.20;;;0.50;;
74872;SDS011;68776;44.762;37.698;2023-05-10T05:42:03;1.38;;;0.22;;
74872;SDS011;68776;44.762;37.698;2023-05-10T05:43:04;2.17;;;0.75;;
74872;SDS011;68776;44.762;37.698;2023-05-10T05:44:05;1.70;;;0.55;;
74872;SDS011;68776;44.762;37.698;2023-05-10T05:45:06;1.13;;;0.28;;
74872;SDS011;68776;44.762;37.698;2023-05-10T05:46:09;2.45;;;0.50;;
74872;SDS011;68776;44.762;37.698;2023-05-10T05:47:10;3.38;;;0.70;;
74872;SDS011;68776;44.762;37.698;2023-05-10T05:48:11;1.13;;;0.40;;
74872;SDS011;68776;44.762;37.698;2023-05-10T05:49:12;1.27;;;0.30;;
74872;SDS011;68776;44.762;37.698;2023-05-10T05:50:13;2.80;;;0.70;;
74872;SDS011;68776;44.762;37.698;2023-05-10T05:51:14;3.53;;;0.73;;
74872;SDS011;68776;44.762;37.698;2023-05-10T05:52:15;2.42;;;0.50;;
74872;SDS011;68776;44.762;37.698;2023-05-10T05:53:16;1.75;;;0.50;;
74872;SDS011;68776;44.762;37.698;2023-05-10T05:54:17;1.50;;;0.50;;
74872;SDS011;68776;44.762;37.698;2023-05-10T05:55:17;3.03;;;0.55;;
74872;SDS011;68776;44.762;37.698;2023-05-10T05:56:18;1.80;;;0.47;;
74872;SDS011;68776;44.762;37.698;2023-05-10T05:57:24;2.17;;;0.50;;
74872;SDS011;68776;44.762;37.698;2023-05-10T05:58:26;1.20;;;0.30;;
74872;SDS011;68776;44.762;37.698;2023-05-10T05:59:28;4.23;;;0.80;;
74872;SDS011;68776;44.762;37.698;2023-05-10T06:00:29;2.00;;;0.55;;
74872;SDS011;68776;44.762;37.698;2023-05-10T06:01:30;2.23;;;0.50;;
74872;SDS011;68776;44.762;37.698;2023-05-10T06:02:31;1.65;;;0.40;;
74872;SDS011;68776;44.762;37.698;2023-05-10T06:03:32;2.90;;;1.20;;
74872;SDS011;68776;44.762;37.698;2023-05-10T06:04:33;4.40;;;0.82;;
74872;SDS011;68776;44.762;37.698;2023-05-10T06:05:34;2.90;;;0.80;;
74872;SDS011;68776;44.762;37.698;2023-05-10T06:06:35;2.58;;;0.77;;
74872;SDS011;68776;44.762;37.698;2023-05-10T06:07:36;2.20;;;0.60;;
74872;SDS011;68776;44.762;37.698;2023-05-10T06:08:37;1.88;;;0.50;;
74872;SDS011;68776;44.762;37.698;2023-05-10T06:09:38;1.65;;;0.43;;
74872;SDS011;68776;44.762;37.698;2023-05-10T06:10:39;1.60;;;0.40;;
74872;SDS011;68776;44.762;37.698;2023-05-10T06:11:40;3.35;;;0.47;;
74872;SDS011;68776;44.762;37.698;2023-05-10T06:12:41;0.90;;;0.20;;
74872;SDS011;68776;44.762;37.698;2023-05-10T06:13:42;1.13;;;0.32;;
74872;SDS011;68776;44.762;37.698;2023-05-10T06:14:43;2.93;;;0.60;;
74872;SDS011;68776;44.762;37.698;2023-05-10T06:15:44;2.10;;;0.45;;
74872;SDS011;68776;44.762;37.698;2023-05-10T06:16:45;1.67;;;0.52;;
74872;SDS011;68776;44.762;37.698;2023-05-10T06:17:46;2.00;;;0.50;;
74872;SDS011;68776;44.762;37.698;2023-05-10T06:18:49;1.92;;;0.50;;
74872;SDS011;68776;44.762;37.698;2023-05-10T06:19:50;1.58;;;0.40;;
74872;SDS011;68776;44.762;37.698;2023-05-10T06:20:51;1.35;;;0.28;;
74872;SDS011;68776;44.762;37.698;2023-05-10T06:21:52;3.20;;;0.65;;
74872;SDS011;68776;44.762;37.698;2023-05-10T06:22:53;1.40;;;0.47;;
74872;SDS011;68776;44.762;37.698;2023-05-10T06:23:54;1.60;;;0.35;;
74872;SDS011;68776;44.762;37.698;2023-05-10T06:24:55;2.10;;;0.60;;
74872;SDS011;68776;44.762;37.698;2023-05-10T06:25:56;1.90;;;0.70;;
74872;SDS011;68776;44.762;37.698;2023-05-10T06:26:57;1.35;;;0.45;;